createdAt,value
2018-04-27T00:01:53.860Z,101454.85
2018-04-27T00:04:20.257Z,101450.52
2018-04-27T00:06:46.451Z,101450.52
2018-04-27T00:09:12.605Z,101445.28
2018-04-27T00:11:38.751Z,101445.73
2018-04-27T00:14:04.931Z,101444.44
2018-04-27T00:16:31.107Z,101443.95
2018-04-27T00:18:57.266Z,101441.80
2018-04-27T00:21:23.741Z,101440.92
2018-04-27T00:23:49.910Z,101441.81
2018-04-27T00:26:16.045Z,101449.70
2018-04-27T00:28:42.209Z,101450.13
2018-04-27T00:31:08.371Z,101446.22
2018-04-27T00:33:34.626Z,101444.00
2018-04-27T00:36:01.009Z,101444.92
2018-04-27T00:38:27.190Z,101442.35
2018-04-27T00:40:53.354Z,101440.64
2018-04-27T00:43:19.502Z,101439.77
2018-04-27T00:45:45.685Z,101446.78
2018-04-27T00:48:11.906Z,101439.39
2018-04-27T00:50:38.042Z,101440.70
2018-04-27T00:53:16.489Z,101441.58
2018-04-27T00:55:42.922Z,101443.81
2018-04-27T00:58:09.061Z,101436.38
2018-04-27T01:00:35.248Z,101438.62
2018-04-27T01:03:01.711Z,101443.02
2018-04-27T01:05:27.918Z,101440.43
2018-04-27T01:07:54.113Z,101439.93
2018-04-27T01:10:20.256Z,101440.73
2018-04-27T01:12:46.420Z,101451.19
2018-04-27T01:15:12.849Z,101447.25
2018-04-27T01:17:39.006Z,101440.72
2018-04-27T01:20:05.148Z,101441.58
2018-04-27T01:22:31.318Z,101440.31
2018-04-27T01:24:57.608Z,101439.91
2018-04-27T01:27:23.836Z,101438.19
2018-04-27T01:29:49.990Z,101436.42
2018-04-27T01:32:16.158Z,101431.16
2018-04-27T01:34:42.572Z,101435.09
2018-04-27T01:37:08.886Z,101421.09
2018-04-27T01:39:35.320Z,101418.91
2018-04-27T01:42:01.487Z,101426.37
2018-04-27T01:44:27.681Z,101430.28
2018-04-27T01:46:53.824Z,101429.42
2018-04-27T01:49:19.960Z,101428.52
2018-04-27T01:51:46.128Z,101427.23
2018-04-27T01:54:12.601Z,101425.48
2018-04-27T01:56:39.034Z,101428.09
2018-04-27T01:59:05.342Z,101432.47
2018-04-27T02:01:31.939Z,101433.77
2018-04-27T02:03:58.069Z,101429.42
2018-04-27T02:06:24.277Z,101425.05
2018-04-27T02:08:50.449Z,101420.68
2018-04-27T02:11:16.917Z,101427.70
2018-04-27T02:13:43.586Z,101425.11
2018-04-27T02:16:09.985Z,101418.61
2018-04-27T02:18:36.139Z,101418.62
2018-04-27T02:21:02.433Z,101417.77
2018-04-27T02:23:28.569Z,101424.77
2018-04-27T02:25:54.716Z,101423.02
2018-04-27T02:28:20.902Z,101417.80
2018-04-27T02:30:47.051Z,101423.48
2018-04-27T02:33:13.214Z,101416.50
2018-04-27T02:35:39.354Z,101419.16
2018-04-27T02:38:05.528Z,101410.89
2018-04-27T02:40:31.726Z,101419.63
2018-04-27T02:42:57.860Z,101410.89
2018-04-27T02:45:24.009Z,101413.53
2018-04-27T02:47:50.274Z,101412.66
2018-04-27T02:50:16.769Z,101407.38
2018-04-27T02:52:42.917Z,101410.03
2018-04-27T02:55:09.329Z,101405.70
2018-04-27T02:57:35.870Z,101400.48
2018-04-27T03:00:02.044Z,101403.20
2018-04-27T03:02:28.562Z,101400.55
2018-04-27T03:04:54.744Z,101393.03
2018-04-27T03:07:20.889Z,101392.18
2018-04-27T03:09:47.101Z,101392.62
2018-04-27T03:12:13.243Z,101391.33
2018-04-27T03:14:39.409Z,101385.27
2018-04-27T03:17:05.544Z,101392.70
2018-04-27T03:19:31.739Z,101394.00
2018-04-27T03:21:57.880Z,101392.30
2018-04-27T03:24:24.015Z,101390.98
2018-04-27T03:26:50.313Z,101390.13
2018-04-27T03:29:16.453Z,101395.83
2018-04-27T03:31:42.585Z,101391.94
2018-04-27T03:34:08.822Z,101392.80
2018-04-27T03:36:34.953Z,101389.75
2018-04-27T03:39:01.095Z,101383.64
2018-04-27T03:41:27.260Z,101384.48
2018-04-27T03:43:53.691Z,101390.94
2018-04-27T03:46:19.868Z,101389.58
2018-04-27T03:48:46.009Z,101382.53
2018-04-27T03:51:12.560Z,101387.84
2018-04-27T03:53:38.725Z,101393.13
2018-04-27T03:56:05.243Z,101397.05
2018-04-27T03:58:31.448Z,101394.02
2018-04-27T04:01:09.767Z,101391.00
2018-04-27T04:06:40.803Z,101397.13
2018-04-27T04:09:07.087Z,101397.55
2018-04-27T04:11:33.250Z,101395.34
2018-04-27T04:13:59.430Z,101392.70
2018-04-27T04:16:25.633Z,101399.70
2018-04-27T04:18:51.829Z,101397.92
2018-04-27T04:21:17.982Z,101388.69
2018-04-27T04:23:44.233Z,101397.03
2018-04-27T04:26:10.376Z,101391.80
2018-04-27T04:28:36.603Z,101394.87
2018-04-27T04:31:02.761Z,101394.42
2018-04-27T04:33:28.907Z,101404.03
2018-04-27T04:35:55.110Z,101407.56
2018-04-27T04:38:21.271Z,101408.46
2018-04-27T04:40:47.434Z,101404.95
2018-04-27T04:43:13.718Z,101403.22
2018-04-27T04:45:39.861Z,101410.20
2018-04-27T04:48:05.996Z,101407.14
2018-04-27T04:50:32.485Z,101412.36
2018-04-27T04:52:58.682Z,101417.60
2018-04-27T04:55:24.812Z,101422.38
2018-04-27T04:57:51.014Z,101425.00
2018-04-27T05:00:17.550Z,101426.72
2018-04-27T05:02:43.775Z,101425.40
2018-04-27T05:05:09.850Z,101429.25
2018-04-27T05:07:36.445Z,101424.31
2018-04-27T05:10:02.613Z,101431.66
2018-04-27T05:12:28.829Z,101435.62
2018-04-27T05:14:55.005Z,101431.25
2018-04-27T05:17:21.456Z,101429.93
2018-04-27T05:19:54.689Z,101431.70
2018-04-27T05:22:20.923Z,101430.76
2018-04-27T05:24:47.102Z,101437.73
2018-04-27T05:27:13.318Z,101437.33
2018-04-27T05:29:39.490Z,101436.50
2018-04-27T05:32:05.638Z,101437.39
2018-04-27T05:34:31.817Z,101436.00
2018-04-27T05:36:58.120Z,101439.48
2018-04-27T05:39:24.574Z,101438.55
2018-04-27T05:41:51.006Z,101433.72
2018-04-27T05:44:17.293Z,101436.70
2018-04-27T05:46:43.768Z,101434.02
2018-04-27T05:49:10.149Z,101430.92
2018-04-27T05:51:36.325Z,101432.64
2018-04-27T05:54:02.517Z,101432.27
2018-04-27T05:56:28.686Z,101432.30
2018-04-27T05:58:54.837Z,101430.53
2018-04-27T06:01:21.452Z,101428.36
2018-04-27T06:03:59.990Z,101426.11
2018-04-27T06:06:26.298Z,101434.78
2018-04-27T06:08:52.738Z,101429.00
2018-04-27T06:11:18.877Z,101429.88
2018-04-27T06:13:45.061Z,101428.48
2018-04-27T06:16:11.373Z,101429.30
2018-04-27T06:18:37.493Z,101429.78
2018-04-27T06:21:03.661Z,101432.98
2018-04-27T06:23:30.101Z,101432.09
2018-04-27T06:25:56.529Z,101425.92
2018-04-27T06:28:22.944Z,101431.67
2018-04-27T06:30:49.114Z,101430.37
2018-04-27T06:33:15.251Z,101433.94
2018-04-27T06:35:41.798Z,101425.73
2018-04-27T06:38:07.958Z,101424.42
2018-04-27T06:40:34.338Z,101422.61
2018-04-27T06:43:00.541Z,101420.91
2018-04-27T06:45:26.680Z,101420.46
2018-04-27T06:47:52.835Z,101417.84
2018-04-27T06:50:19.017Z,101427.02
2018-04-27T06:52:45.165Z,101417.84
2018-04-27T06:55:11.345Z,101416.97
2018-04-27T06:57:37.513Z,101412.16
2018-04-27T07:00:03.760Z,101417.81
2018-04-27T07:02:30.257Z,101420.44
2018-04-27T07:04:56.551Z,101421.35
2018-04-27T07:07:23.023Z,101410.40
2018-04-27T07:09:49.177Z,101420.44
2018-04-27T07:12:15.458Z,101417.80
2018-04-27T07:14:41.644Z,101413.80
2018-04-27T07:17:07.809Z,101417.21
2018-04-27T07:19:33.989Z,101416.80
2018-04-27T07:22:00.385Z,101429.08
2018-04-27T07:24:27.065Z,101421.68
2018-04-27T07:26:53.214Z,101421.23
2018-04-27T07:29:19.362Z,101412.95
2018-04-27T07:31:45.537Z,101419.97
2018-04-27T07:34:11.776Z,101424.76
2018-04-27T07:36:38.170Z,101426.48
2018-04-27T07:39:05.213Z,101417.72
2018-04-27T07:41:31.362Z,101423.42
2018-04-27T07:43:57.519Z,101417.73
2018-04-27T07:46:23.692Z,101419.47
2018-04-27T07:48:49.861Z,101425.16
2018-04-27T07:51:16.150Z,101418.12
2018-04-27T07:53:42.297Z,101417.23
2018-04-27T07:56:08.450Z,101418.55
2018-04-27T07:58:34.676Z,101416.30
2018-04-27T08:01:01.310Z,101419.70
2018-04-27T08:03:27.469Z,101418.30
2018-04-27T08:05:53.619Z,101425.30
2018-04-27T08:08:26.849Z,101415.70
2018-04-27T08:10:53.008Z,101420.48
2018-04-27T08:13:19.221Z,101420.96
2018-04-27T08:15:45.490Z,101424.08
2018-04-27T08:18:11.645Z,101421.91
2018-04-27T08:20:37.861Z,101422.30
2018-04-27T08:23:04.597Z,101423.61
2018-04-27T08:25:33.824Z,101411.78
2018-04-27T08:28:00.040Z,101415.67
2018-04-27T08:30:26.370Z,101420.53
2018-04-27T08:32:52.589Z,101420.91
2018-04-27T08:35:18.750Z,101419.98
2018-04-27T08:37:45.034Z,101415.95
2018-04-27T08:40:11.195Z,101412.87
2018-04-27T08:42:37.349Z,101412.41
2018-04-27T08:45:03.570Z,101417.66
2018-04-27T08:47:29.762Z,101419.75
2018-04-27T08:49:55.937Z,101414.55
2018-04-27T08:52:22.121Z,101421.52
2018-04-27T08:54:48.303Z,101414.48
2018-04-27T08:57:14.754Z,101417.57
2018-04-27T08:59:40.917Z,101415.77
2018-04-27T09:02:07.052Z,101411.34
2018-04-27T09:04:33.298Z,101424.05
2018-04-27T09:06:59.458Z,101418.38
2018-04-27T09:09:25.644Z,101420.08
2018-04-27T09:11:51.811Z,101412.59
2018-04-27T09:14:18.046Z,101421.79
2018-04-27T09:16:44.331Z,101413.88
2018-04-27T09:19:10.809Z,101415.14
2018-04-27T09:21:37.010Z,101413.30
2018-04-27T09:24:03.513Z,101411.55
2018-04-27T09:26:29.667Z,101407.13
2018-04-27T09:28:55.830Z,101401.02
2018-04-27T09:31:22.009Z,101401.48
2018-04-27T09:33:48.157Z,101395.02
2018-04-27T09:36:14.334Z,101394.22
2018-04-27T09:38:40.496Z,101392.85
2018-04-27T09:41:06.689Z,101402.38
2018-04-27T09:43:32.925Z,101389.25
2018-04-27T09:45:59.086Z,101388.80
2018-04-27T09:48:25.550Z,101386.50
2018-04-27T09:50:51.870Z,101392.48
2018-04-27T09:53:18.037Z,101387.58
2018-04-27T09:55:44.187Z,101385.26
2018-04-27T09:58:10.388Z,101389.94
2018-04-27T10:00:37.417Z,101383.19
2018-04-27T10:03:03.561Z,101384.77
2018-04-27T10:05:29.845Z,101380.27
2018-04-27T10:07:56.293Z,101378.58
2018-04-27T10:10:22.449Z,101374.25
2018-04-27T10:12:48.643Z,101377.34
2018-04-27T10:15:14.829Z,101372.91
2018-04-27T10:17:41.107Z,101365.78
2018-04-27T10:20:07.254Z,101357.73
2018-04-27T10:22:33.421Z,101358.05
2018-04-27T10:24:59.717Z,101351.34
2018-04-27T10:27:25.886Z,101353.41
2018-04-27T10:29:52.049Z,101350.28
2018-04-27T10:32:18.468Z,101351.95
2018-04-27T10:34:44.645Z,101345.78
2018-04-27T10:37:11.543Z,101350.48
2018-04-27T10:39:37.749Z,101353.20
2018-04-27T10:42:04.307Z,101346.22
2018-04-27T10:44:30.532Z,101339.23
2018-04-27T10:46:56.701Z,101338.98
2018-04-27T10:49:22.875Z,101335.86
2018-04-27T10:51:49.094Z,101326.62
2018-04-27T10:54:15.267Z,101327.16
2018-04-27T10:56:41.430Z,101322.20
2018-04-27T10:59:07.625Z,101317.28
2018-04-27T11:01:33.845Z,101318.07
2018-04-27T11:04:00.271Z,101315.44
2018-04-27T11:06:26.584Z,101311.90
2018-04-27T11:08:52.741Z,101308.83
2018-04-27T11:11:19.249Z,101308.27
2018-04-27T11:13:45.926Z,101302.50
2018-04-27T11:16:12.506Z,101308.03
2018-04-27T11:18:38.618Z,101310.16
2018-04-27T11:21:04.921Z,101310.59
2018-04-27T11:23:31.077Z,101304.49
2018-04-27T11:25:57.234Z,101303.98
2018-04-27T11:28:23.401Z,101310.56
2018-04-27T11:30:49.892Z,101299.03
2018-04-27T11:33:16.047Z,101302.34
2018-04-27T11:35:42.247Z,101295.62
2018-04-27T11:38:08.886Z,101285.89
2018-04-27T11:40:35.321Z,101278.77
2018-04-27T11:43:01.480Z,101276.61
2018-04-27T11:45:27.980Z,101260.62
2018-04-27T11:47:54.253Z,101274.78
2018-04-27T11:50:20.845Z,101270.36
2018-04-27T11:52:47.059Z,101273.83
2018-04-27T11:55:13.276Z,101272.92
2018-04-27T11:57:39.458Z,101271.60
2018-04-27T12:00:05.774Z,101274.67
2018-04-27T12:02:33.009Z,101271.60
2018-04-27T12:04:59.205Z,101270.66
2018-04-27T12:07:25.435Z,101270.58
2018-04-27T12:09:51.848Z,101265.25
2018-04-27T12:12:18.109Z,101264.19
2018-04-27T12:14:44.934Z,101272.34
2018-04-27T12:17:11.097Z,101276.52
2018-04-27T12:19:37.258Z,101269.02
2018-04-27T12:22:03.606Z,101261.59
2018-04-27T12:24:29.781Z,101262.91
2018-04-27T12:26:55.930Z,101268.13
2018-04-27T12:29:22.442Z,101264.52
2018-04-27T12:31:48.728Z,101271.75
2018-04-27T12:34:14.869Z,101271.63
2018-04-27T12:36:41.025Z,101266.61
2018-04-27T12:39:07.183Z,101270.48
2018-04-27T12:41:34.021Z,101262.90
2018-04-27T12:44:00.188Z,101261.10
2018-04-27T12:46:26.378Z,101259.39
2018-04-27T12:48:53.018Z,101262.66
2018-04-27T12:51:19.430Z,101259.66
2018-04-27T12:53:45.586Z,101265.05
2018-04-27T12:56:11.793Z,101263.52
2018-04-27T12:58:38.004Z,101248.19
2018-04-27T13:01:04.174Z,101240.56
2018-04-27T13:03:30.318Z,101241.45
2018-04-27T13:05:56.505Z,101233.14
2018-04-27T13:08:22.658Z,101233.06
2018-04-27T13:10:49.136Z,101225.08
2018-04-27T13:13:15.315Z,101221.96
2018-04-27T13:15:41.902Z,101210.50
2018-04-27T13:18:08.067Z,101216.97
2018-04-27T13:20:34.209Z,101210.75
2018-04-27T13:23:00.398Z,101203.67
2018-04-27T13:25:26.545Z,101203.99
2018-04-27T13:27:52.697Z,101205.19
2018-04-27T13:30:18.874Z,101198.88
2018-04-27T13:32:45.017Z,101200.98
2018-04-27T13:35:11.320Z,101201.91
2018-04-27T13:37:37.511Z,101201.15
2018-04-27T13:40:03.650Z,101191.97
2018-04-27T13:42:30.019Z,101189.20
2018-04-27T13:44:56.179Z,101193.31
2018-04-27T13:47:22.317Z,101187.39
2018-04-27T13:49:48.594Z,101177.87
2018-04-27T13:52:14.736Z,101176.64
2018-04-27T13:54:40.901Z,101169.91
2018-04-27T13:57:07.106Z,101171.63
2018-04-27T13:59:33.266Z,101165.56
2018-04-27T14:01:59.405Z,101163.94
2018-04-27T14:04:25.805Z,101153.73
2018-04-27T14:06:51.956Z,101149.69
2018-04-27T14:09:18.308Z,101139.75
2018-04-27T14:11:44.452Z,101142.47
2018-04-27T14:14:10.589Z,101146.48
2018-04-27T14:16:36.893Z,101140.45
2018-04-27T14:19:03.028Z,101137.42
2018-04-27T14:21:29.476Z,101126.15
2018-04-27T14:23:55.633Z,101123.36
2018-04-27T14:26:21.768Z,101124.81
2018-04-27T14:28:47.891Z,101120.45
2018-04-27T14:31:14.078Z,101111.39
2018-04-27T14:33:40.237Z,101107.19
2018-04-27T14:36:06.377Z,101106.53
2018-04-27T14:38:33.249Z,101105.52
2018-04-27T14:40:59.395Z,101103.58
2018-04-27T14:43:25.730Z,101110.35
2018-04-27T14:45:52.347Z,101112.55
2018-04-27T14:48:18.473Z,101106.28
2018-04-27T14:50:44.637Z,101104.11
2018-04-27T14:53:11.032Z,101102.30
2018-04-27T14:55:37.194Z,101099.31
2018-04-27T14:58:03.440Z,101094.12
2018-04-27T15:00:29.603Z,101093.47
2018-04-27T15:02:55.786Z,101093.34
2018-04-27T15:05:21.965Z,101092.92
2018-04-27T15:07:48.117Z,101098.20
2018-04-27T15:10:14.294Z,101093.73
2018-04-27T15:12:40.503Z,101090.53
2018-04-27T15:15:06.785Z,101087.01
2018-04-27T15:17:32.966Z,101091.78
2018-04-27T15:19:59.174Z,101089.36
2018-04-27T15:22:25.300Z,101094.33
2018-04-27T15:24:51.442Z,101092.65
2018-04-27T15:27:17.689Z,101094.05
2018-04-27T15:29:43.817Z,101094.53
2018-04-27T15:32:09.964Z,101098.61
2018-04-27T15:34:36.361Z,101100.00
2018-04-27T15:37:02.825Z,101099.69
2018-04-27T15:39:29.038Z,101098.48
2018-04-27T15:41:55.218Z,101089.27
2018-04-27T15:44:21.413Z,101091.11
2018-04-27T15:46:47.758Z,101093.75
2018-04-27T15:49:13.920Z,101097.33
2018-04-27T15:51:40.401Z,101097.81
2018-04-27T15:54:06.590Z,101092.14
2018-04-27T15:56:32.755Z,101097.02
2018-04-27T15:58:58.921Z,101102.72
2018-04-27T16:01:25.141Z,101102.28
2018-04-27T16:03:51.379Z,101107.55
2018-04-27T16:06:17.567Z,101109.78
2018-04-27T16:08:44.102Z,101104.55
2018-04-27T16:11:10.631Z,101105.03
2018-04-27T16:13:47.816Z,101098.97
2018-04-27T16:16:13.988Z,101095.53
2018-04-27T16:18:40.153Z,101100.88
2018-04-27T16:21:06.605Z,101099.64
2018-04-27T16:23:32.790Z,101097.97
2018-04-27T16:25:58.938Z,101105.50
2018-04-27T16:28:25.155Z,101102.07
2018-04-27T16:30:51.313Z,101104.30
2018-04-27T16:33:17.459Z,101101.30
2018-04-27T16:35:44.055Z,101100.87
2018-04-27T16:38:10.194Z,101103.62
2018-04-27T16:40:37.150Z,101097.98
2018-04-27T16:43:03.328Z,101097.19
2018-04-27T16:45:29.481Z,101099.45
2018-04-27T16:47:55.795Z,101104.80
2018-04-27T16:50:21.993Z,101103.59
2018-04-27T16:52:48.137Z,101098.41
2018-04-27T16:55:14.644Z,101091.98
2018-04-27T16:57:41.052Z,101091.25
2018-04-27T17:00:07.221Z,101082.62
2018-04-27T17:02:33.405Z,101081.85
2018-04-27T17:04:59.575Z,101082.80
2018-04-27T17:07:26.064Z,101086.38
2018-04-27T17:09:52.257Z,101088.61
2018-04-27T17:12:18.408Z,101084.73
2018-04-27T17:14:44.623Z,101076.84
2018-04-27T17:17:10.862Z,101078.70
2018-04-27T17:19:36.982Z,101082.28
2018-04-27T17:22:03.536Z,101081.45
2018-04-27T17:24:29.751Z,101089.38
2018-04-27T17:26:55.913Z,101086.81
2018-04-27T17:29:22.070Z,101089.08
2018-04-27T17:31:48.380Z,101097.00
2018-04-27T17:34:14.884Z,101106.20
2018-04-27T17:36:41.150Z,101111.97
2018-04-27T17:39:07.287Z,101123.87
2018-04-27T17:41:33.570Z,101119.52
2018-04-27T17:43:59.748Z,101112.95
2018-04-27T17:46:26.006Z,101117.36
2018-04-27T17:48:52.285Z,101120.94
2018-04-27T17:51:18.433Z,101123.59
2018-04-27T17:53:44.917Z,101107.42
2018-04-27T17:56:11.122Z,101106.14
2018-04-27T17:58:37.478Z,101101.83
2018-04-27T18:01:03.632Z,101099.20
2018-04-27T18:03:29.794Z,101099.67
2018-04-27T18:05:56.281Z,101096.63
2018-04-27T18:08:22.792Z,101090.50
2018-04-27T18:10:49.223Z,101082.28
2018-04-27T18:13:15.904Z,101087.09
2018-04-27T18:15:42.061Z,101084.53
2018-04-27T18:18:08.258Z,101089.38
2018-04-27T18:20:34.512Z,101087.63
2018-04-27T18:23:00.676Z,101084.16
2018-04-27T18:25:26.910Z,101085.55
2018-04-27T18:27:53.075Z,101089.08
2018-04-27T18:30:19.255Z,101087.33
2018-04-27T18:32:45.559Z,101091.30
2018-04-27T18:35:11.630Z,101081.67
2018-04-27T18:37:37.846Z,101082.58
2018-04-27T18:40:04.011Z,101082.61
2018-04-27T18:42:30.197Z,101079.14
2018-04-27T18:44:56.649Z,101080.52
2018-04-27T18:47:22.881Z,101079.20
2018-04-27T18:49:49.109Z,101078.80
2018-04-27T18:52:15.277Z,101079.70
2018-04-27T18:54:41.577Z,101084.56
2018-04-27T18:57:07.771Z,101085.44
2018-04-27T18:59:33.957Z,101090.25
2018-04-27T19:02:00.191Z,101093.78
2018-04-27T19:04:26.413Z,101083.31
2018-04-27T19:06:52.582Z,101087.25
2018-04-27T19:09:18.827Z,101085.13
2018-04-27T19:11:45.039Z,101087.34
2018-04-27T19:14:11.464Z,101087.34
2018-04-27T19:16:37.712Z,101087.81
2018-04-27T19:19:03.897Z,101079.94
2018-04-27T19:21:30.100Z,101081.75
2018-04-27T19:23:56.286Z,101089.63
2018-04-27T19:26:23.551Z,101078.69
2018-04-27T19:28:56.605Z,101083.97
2018-04-27T19:31:22.798Z,101087.50
2018-04-27T19:33:50.087Z,101091.88
2018-04-27T19:36:16.325Z,101095.39
2018-04-27T19:38:42.479Z,101096.30
2018-04-27T19:41:08.653Z,101094.55
2018-04-27T19:43:35.112Z,101093.27
2018-04-27T19:46:01.413Z,101091.54
2018-04-27T19:48:27.596Z,101082.81
2018-04-27T19:50:53.867Z,101077.56
2018-04-27T19:53:20.237Z,101074.02
2018-04-27T19:55:46.468Z,101076.72
2018-04-27T19:58:12.645Z,101068.87
2018-04-27T20:00:39.893Z,101078.47
2018-04-27T20:03:06.065Z,101077.63
2018-04-27T20:05:35.056Z,101077.63
2018-04-27T20:08:01.315Z,101075.50
2018-04-27T20:10:34.520Z,101077.25
2018-04-27T20:13:00.727Z,101074.63
2018-04-27T20:15:35.197Z,101073.72
2018-04-27T20:18:01.397Z,101072.94
2018-04-27T20:20:27.593Z,101073.34
2018-04-27T20:22:53.852Z,101072.47
2018-04-27T20:25:20.027Z,101075.56
2018-04-27T20:27:46.282Z,101075.13
2018-04-27T20:30:14.385Z,101074.28
2018-04-27T20:32:43.415Z,101075.16
2018-04-27T20:35:12.340Z,101077.31
2018-04-27T20:37:38.602Z,101077.69
2018-04-27T20:40:04.835Z,101072.84
2018-04-27T20:42:31.144Z,101075.94
2018-04-27T20:44:57.649Z,101068.52
2018-04-27T20:47:23.829Z,101065.09
2018-04-27T20:49:50.384Z,101068.12
2018-04-27T20:52:16.693Z,101062.90
2018-04-27T20:54:43.177Z,101064.18
2018-04-27T20:57:09.473Z,101055.45
2018-04-27T20:59:35.691Z,101052.39
2018-04-27T21:02:02.166Z,101054.17
2018-04-27T21:04:28.379Z,101044.61
2018-04-27T21:06:56.634Z,101047.23
2018-04-27T21:09:22.897Z,101047.23
2018-04-27T21:11:49.066Z,101046.77
2018-04-27T21:14:15.274Z,101041.10
2018-04-27T21:16:41.486Z,101044.20
2018-04-27T21:19:07.665Z,101042.45
2018-04-27T21:21:33.901Z,101040.29
2018-04-27T21:24:00.146Z,101031.16
2018-04-27T21:26:27.296Z,101028.09
2018-04-27T21:28:53.848Z,101029.81
2018-04-27T21:31:20.030Z,101022.34
2018-04-27T21:33:53.012Z,101019.75
2018-04-27T21:36:19.233Z,101020.63
2018-04-27T21:38:57.269Z,101015.81
2018-04-27T21:44:34.294Z,101013.15
2018-04-27T21:49:57.124Z,101007.52
2018-04-27T21:52:29.505Z,101011.02
2018-04-27T21:54:55.724Z,101010.19
2018-04-27T21:57:23.774Z,101018.47
2018-04-27T21:59:54.050Z,101009.31
2018-04-27T22:05:55.061Z,101012.84
2018-04-27T22:08:22.997Z,101007.22
2018-04-27T22:10:49.217Z,101013.78
2018-04-27T22:13:16.856Z,101004.19
2018-04-27T22:15:43.312Z,101008.12
2018-04-27T22:18:09.616Z,101005.97
2018-04-27T22:20:45.796Z,100998.93
2018-04-27T22:23:12.093Z,100997.21
2018-04-27T22:25:43.257Z,100998.09
2018-04-27T22:28:09.489Z,100992.47
2018-04-27T22:30:37.891Z,100996.37
2018-04-27T22:33:15.124Z,100992.87
2018-04-27T22:35:58.202Z,100995.09
2018-04-27T22:38:34.624Z,100989.36
2018-04-27T22:41:00.853Z,100986.80
2018-04-27T22:43:27.040Z,100989.87
2018-04-27T22:46:00.128Z,100987.71
2018-04-27T22:51:21.679Z,100978.18
2018-04-27T22:54:06.664Z,100978.59
2018-04-27T22:59:27.539Z,100973.40
2018-04-27T23:01:56.496Z,100970.80
2018-04-27T23:04:22.874Z,100966.86
2018-04-27T23:06:49.993Z,100964.71
2018-04-27T23:09:16.173Z,100957.27
2018-04-27T23:11:42.817Z,100960.37
2018-04-27T23:14:19.870Z,100954.67
2018-04-27T23:16:48.098Z,100956.90
2018-04-27T23:19:14.332Z,100951.64
2018-04-27T23:22:16.185Z,100952.55
2018-04-27T23:24:42.368Z,100955.68
2018-04-27T23:27:08.856Z,100944.30
2018-04-27T23:29:35.032Z,100946.16
2018-04-27T23:32:01.547Z,100935.18
2018-04-27T23:34:27.905Z,100935.63
2018-04-27T23:36:54.124Z,100937.74
2018-04-27T23:39:20.341Z,100940.37
2018-04-27T23:41:46.597Z,100940.37
2018-04-27T23:44:12.833Z,100938.63
2018-04-27T23:46:39.068Z,100931.15
2018-04-27T23:49:05.307Z,100933.30
2018-04-27T23:51:31.519Z,100931.18
2018-04-27T23:53:57.743Z,100936.43
2018-04-27T23:56:40.418Z,100933.80
2018-04-27T23:59:06.606Z,100927.24
